Time;durP1;ratioP1;P1;durP2;ratioP2;P2;SDS_P1;SDS_P2;PMS_P1;PMS_P2;Temp;Humidity;BMP_temperature;BMP_pressure;BME280_temperature;BME280_humidity;BME280_pressure;Samples;Min_cycle;Max_cycle;Signal;HPM_P1;HPM_P2
2022/05/25 00:00:08;;;;;;;11.32;5.00;;;;;;;14.88;100.00;96021.50;5035588;28;20037;-47
2022/05/25 00:02:36;;;;;;;;;;;;;;;14.95;100.00;96017.91;5039642;28;20041;-52
2022/05/25 00:05:06;;;;;;;4.65;4.15;;;;;;;14.96;100.00;96010.78;5042687;28;19945;-51
2022/05/25 00:07:34;;;;;;;6.93;4.60;;;;;;;15.02;100.00;96014.53;5041346;28;20069;-52
2022/05/25 00:10:05;;;;;;;6.40;4.22;;;;;;;14.71;100.00;96026.13;5038244;28;20077;-49
2022/05/25 00:12:34;;;;;;;5.00;4.50;;;;;;;14.88;100.00;96034.78;5038450;28;22060;-55
2022/05/25 00:15:06;;;;;;;5.18;4.68;;;;;;;14.80;100.00;96040.19;5043289;28;20481;-52
2022/05/25 00:17:34;;;;;;;5.93;4.47;;;;;;;14.75;100.00;96027.44;5043117;28;20072;-52
2022/05/25 00:20:03;;;;;;;5.97;4.47;;;;;;;14.85;100.00;96030.63;5044454;28;20123;-50
2022/05/25 00:22:41;;;;;;;7.05;4.50;;;;;;;14.99;100.00;96031.66;5044000;28;20045;-55
2022/05/25 00:25:13;;;;;;;7.50;4.72;;;;;;;15.06;100.00;96021.94;5039806;28;20076;-52
2022/05/25 00:27:41;;;;;;;5.53;4.80;;;;;;;15.08;100.00;96017.28;5045667;28;20067;-54
2022/05/25 00:30:11;;;;;;;5.28;4.38;;;;;;;15.16;100.00;96019.03;5034574;28;20069;-52
2022/05/25 00:32:41;;;;;;;5.07;4.57;;;;;;;15.18;100.00;96023.16;5040244;28;20048;-49
2022/05/25 00:35:11;;;;;;;4.95;4.45;;;;;;;15.04;100.00;96009.88;5041685;28;20061;-51
2022/05/25 00:37:40;;;;;;;8.18;4.30;;;;;;;15.09;100.00;96000.34;5037287;28;20065;-53
2022/05/25 00:40:12;;;;;;;6.63;4.55;;;;;;;15.14;100.00;95997.13;5040874;28;20490;-53
2022/05/25 00:42:40;;;;;;;5.47;4.30;;;;;;;15.13;100.00;95995.47;5044884;28;20033;-51
2022/05/25 00:45:10;;;;;;;8.55;4.55;;;;;;;15.05;100.00;95990.28;5042785;28;20065;-50
2022/05/25 00:47:40;;;;;;;5.22;4.30;;;;;;;15.01;100.00;95995.13;5044155;28;20073;-57
2022/05/25 00:50:11;;;;;;;5.00;4.53;;;;;;;14.94;100.00;95995.03;5041516;28;20076;-50
2022/05/25 00:52:42;;;;;;;5.30;4.40;;;;;;;14.97;100.00;95999.16;5047333;28;20049;-51
2022/05/25 00:55:16;;;;;;;4.38;3.97;;;;;;;15.08;100.00;96003.19;5048622;28;20663;-48
2022/05/25 00:57:47;;;;;;;5.10;4.53;;;;;;;15.08;100.00;95992.56;5047522;28;20076;-52
2022/05/25 01:00:18;;;;;;;6.88;4.18;;;;;;;14.88;100.00;95993.13;5040012;28;20060;-49
2022/05/25 01:02:49;;;;;;;5.78;4.60;;;;;;;14.68;100.00;95992.00;5042143;28;20056;-52
2022/05/25 01:05:21;;;;;;;6.85;4.38;;;;;;;14.65;100.00;95990.53;5045463;28;20064;-54
2022/05/25 01:08:01;;;;;;;5.40;4.40;;;;;;;14.70;100.00;95997.97;5048086;28;20075;-49
2022/05/25 01:10:39;;;;;;;4.85;4.35;;;;;;;14.71;100.00;96003.06;5040850;28;20068;-49
2022/05/25 01:13:13;;;;;;;5.10;4.60;;;;;;;14.84;100.00;96010.41;5039467;28;20080;-50
2022/05/25 01:15:50;;;;;;;5.53;4.53;;;;;;;14.93;100.00;96012.00;5046044;28;20077;-51
2022/05/25 01:18:26;;;;;;;4.90;4.35;;;;;;;14.88;100.00;96010.88;5046711;28;20064;-51
2022/05/25 01:20:56;;;;;;;7.22;4.07;;;;;;;15.00;100.00;96005.94;5047434;28;20128;-50
2022/05/25 01:23:48;;;;;;;6.57;4.47;;;;;;;15.05;100.00;96004.38;5044556;28;20067;-51
2022/05/25 01:27:04;;;;;;;5.47;4.85;;;;;;;14.94;100.00;96016.28;5040284;28;20064;-52
2022/05/25 01:30:08;;;;;;;5.30;4.50;;;;;;;14.98;100.00;96023.88;5045220;28;20061;-51
2022/05/25 01:32:43;;;;;;;6.25;4.90;;;;;;;14.91;100.00;96027.25;5009971;28;20083;-53
2022/05/25 01:35:21;;;;;;;5.20;4.70;;;;;;;14.91;100.00;96039.72;5044390;28;20068;-50
2022/05/25 01:37:54;;;;;;;6.13;4.88;;;;;;;14.62;100.00;96041.31;5042381;28;20073;-51
2022/05/25 01:40:25;;;;;;;5.13;4.63;;;;;;;14.61;100.00;96050.28;5044360;28;20056;-48
2022/05/25 01:42:56;;;;;;;5.88;5.18;;;;;;;14.76;100.00;96046.81;5049675;28;20072;-50
2022/05/25 01:45:30;;;;;;;10.85;5.30;;;;;;;14.78;100.00;96047.47;5044898;28;20470;-51
2022/05/25 01:48:01;;;;;;;5.55;5.05;;;;;;;14.75;100.00;96037.22;5041414;28;20076;-52
2022/05/25 01:50:35;;;;;;;7.38;5.35;;;;;;;14.74;100.00;96033.75;5039856;28;20076;-50
2022/05/25 01:53:07;;;;;;;5.90;5.30;;;;;;;14.80;100.00;96037.53;5043575;28;20060;-53
2022/05/25 01:55:38;;;;;;;7.38;5.90;;;;;;;14.69;100.00;96044.06;5046216;28;20057;-50
2022/05/25 01:58:10;;;;;;;6.15;5.05;;;;;;;14.81;100.00;96047.13;5046205;28;20475;-50
2022/05/25 02:00:42;;;;;;;6.40;5.70;;;;;;;14.74;100.00;96054.16;5043200;28;20076;-50
2022/05/25 02:06:10;;;;;;;6.15;5.35;;;;;;;14.90;100.00;96038.91;5044351;28;20061;-53
2022/05/25 02:08:42;;;;;;;5.85;5.25;;;;;;;14.96;100.00;96034.66;5038590;28;20076;-50
2022/05/25 02:11:17;;;;;;;6.70;5.50;;;;;;;14.87;100.00;96036.59;5043974;28;20741;-53
2022/05/25 02:13:55;;;;;;;7.75;5.70;;;;;;;14.90;100.00;96038.06;5044402;28;20083;-49
2022/05/25 02:16:32;;;;;;;8.65;6.45;;;;;;;14.86;100.00;96042.06;5044768;28;20522;-51
2022/05/25 02:19:06;;;;;;;7.40;5.97;;;;;;;14.81;100.00;96042.63;5044194;28;20456;-55
2022/05/25 02:21:40;;;;;;;6.75;5.97;;;;;;;14.80;100.00;96048.97;5047626;28;20061;-54
2022/05/25 02:24:11;;;;;;;7.10;6.40;;;;;;;14.98;100.00;96050.44;5046568;28;20093;-54
2022/05/25 02:26:43;;;;;;;7.53;6.38;;;;;;;14.94;100.00;96044.66;5045165;28;20060;-48
2022/05/25 02:29:15;;;;;;;10.40;7.47;;;;;;;14.87;100.00;96044.56;5046284;28;20060;-50
2022/05/25 02:31:47;;;;;;;7.32;6.50;;;;;;;14.87;100.00;96043.75;5045173;28;20063;-51
2022/05/25 02:34:17;;;;;;;9.82;7.03;;;;;;;14.90;100.00;96048.66;5044543;28;20064;-54
2022/05/25 02:36:46;;;;;;;8.50;6.85;;;;;;;14.88;100.00;96037.44;5042597;28;20069;-47
2022/05/25 02:39:15;;;;;;;10.80;7.40;;;;;;;14.85;100.00;96040.44;5040863;28;20518;-50
2022/05/25 02:41:49;;;;;;;10.50;7.68;;;;;;;14.71;100.00;96050.03;5041995;28;20549;-50
2022/05/25 02:44:17;;;;;;;8.23;7.15;;;;;;;14.80;100.00;96048.97;5045437;28;20111;-51
2022/05/25 02:46:48;;;;;;;8.85;7.70;;;;;;;14.95;100.00;96060.41;5044288;28;20072;-53
2022/05/25 02:49:18;;;;;;;8.25;7.40;;;;;;;14.92;100.00;96065.25;5042434;28;20068;-50
2022/05/25 02:51:47;;;;;;;;;;;;;;;14.98;100.00;96075.16;5041270;28;20076;-49
2022/05/25 02:54:15;;;;;;;11.50;7.25;;;;;;;14.82;100.00;96076.13;5040746;28;20413;-49
2022/05/25 02:56:43;;;;;;;10.13;7.03;;;;;;;14.85;100.00;96075.78;5041941;28;20691;-50
2022/05/25 02:59:11;;;;;;;14.77;7.88;;;;;;;14.81;100.00;96073.66;5044974;28;20156;-53
2022/05/25 03:01:40;;;;;;;12.27;7.80;;;;;;;14.65;100.00;96078.09;5040604;28;20079;-48
2022/05/25 03:04:10;;;;;;;9.82;8.00;;;;;;;14.70;100.00;96082.91;5036988;28;20475;-51
2022/05/25 03:06:38;;;;;;;12.23;8.40;;;;;;;14.60;100.00;96092.94;5040089;28;20081;-53
2022/05/25 03:09:07;;;;;;;12.93;9.20;;;;;;;14.54;100.00;96097.09;5043921;28;20068;-55
2022/05/25 03:11:35;;;;;;;12.60;8.40;;;;;;;14.74;100.00;96089.50;5044690;28;20076;-55
2022/05/25 03:14:04;;;;;;;10.05;8.45;;;;;;;14.75;100.00;96088.47;5040726;28;20079;-51
2022/05/25 03:16:33;;;;;;;11.32;8.77;;;;;;;14.82;100.00;96089.41;5041309;28;20069;-56
2022/05/25 03:19:01;;;;;;;14.30;9.15;;;;;;;14.69;100.00;96100.66;5042768;28;20087;-51
2022/05/25 03:21:31;;;;;;;11.30;9.10;;;;;;;14.77;100.00;96102.41;5041855;28;20099;-48
2022/05/25 03:23:59;;;;;;;11.97;9.33;;;;;;;14.84;100.00;96106.00;5039104;28;20084;-51
2022/05/25 03:26:28;;;;;;;11.27;9.65;;;;;;;14.57;100.00;96114.50;5040440;28;20060;-49
2022/05/25 03:28:56;;;;;;;11.07;9.57;;;;;;;14.82;100.00;96110.63;5042983;28;20084;-55
2022/05/25 03:31:25;;;;;;;12.07;10.38;;;;;;;14.89;100.00;96108.09;5045939;28;20061;-56
2022/05/25 03:33:53;;;;;;;11.18;9.40;;;;;;;14.78;100.00;96112.00;5046561;28;20447;-48
2022/05/25 03:36:22;;;;;;;11.85;9.75;;;;;;;14.73;100.00;96114.38;5037883;28;20553;-51
2022/05/25 03:38:51;;;;;;;11.25;9.88;;;;;;;14.79;100.00;96113.66;5042025;28;20409;-52
2022/05/25 03:41:21;;;;;;;10.93;9.80;;;;;;;14.82;100.00;96105.31;5043826;28;20551;-49
2022/05/25 03:43:50;;;;;;;12.68;10.15;;;;;;;14.82;100.00;96118.59;5039618;28;20510;-48
2022/05/25 03:46:18;;;;;;;11.95;10.38;;;;;;;14.85;100.00;96120.09;5042547;28;20068;-51
2022/05/25 03:48:46;;;;;;;11.88;9.55;;;;;;;14.86;100.00;96125.19;5041410;28;20073;-51
2022/05/25 03:51:15;;;;;;;13.70;10.18;;;;;;;14.69;100.00;96124.53;5038048;28;20072;-55
2022/05/25 03:53:43;;;;;;;10.55;9.35;;;;;;;14.86;100.00;96127.84;5039717;28;20061;-52
2022/05/25 03:56:13;;;;;;;11.95;9.23;;;;;;;14.78;100.00;96135.91;5040655;28;20068;-49
2022/05/25 03:58:41;;;;;;;11.52;9.63;;;;;;;14.90;100.00;96131.81;5042943;28;20703;-51
2022/05/25 04:01:09;;;;;;;10.63;9.52;;;;;;;14.85;100.00;96143.97;5041597;28;20072;-52
2022/05/25 04:03:37;;;;;;;12.70;9.43;;;;;;;15.00;100.00;96144.00;5037050;28;20084;-51
2022/05/25 04:06:06;;;;;;;13.20;9.93;;;;;;;15.01;100.00;96135.06;5042979;28;20067;-49
2022/05/25 04:08:34;;;;;;;11.50;9.77;;;;;;;14.90;100.00;96139.78;5044575;28;20502;-48
2022/05/25 04:11:02;;;;;;;12.18;9.18;;;;;;;14.90;100.00;96150.41;5048195;28;20085;-51
2022/05/25 04:13:32;;;;;;;11.63;9.38;;;;;;;14.72;100.00;96157.84;5044168;28;20057;-50
2022/05/25 04:16:00;;;;;;;12.00;9.13;;;;;;;14.63;100.00;96159.75;5044274;28;20089;-51
2022/05/25 04:18:29;;;;;;;12.93;9.50;;;;;;;14.71;100.00;96158.84;5042497;28;21069;-52
2022/05/25 04:20:57;;;;;;;9.23;8.18;;;;;;;14.47;100.00;96157.16;5034813;28;20080;-53
2022/05/25 04:23:27;;;;;;;14.38;8.48;;;;;;;14.67;100.00;96162.88;5042036;28;20061;-53
2022/05/25 04:25:56;;;;;;;;;;;;;;;14.57;100.00;96164.94;5047476;28;20057;-48
2022/05/25 04:28:24;;;;;;;10.98;7.63;;;;;;;14.64;100.00;96166.69;5047845;28;19967;-48
2022/05/25 04:30:54;;;;;;;12.20;8.35;;;;;;;14.59;100.00;96174.38;5039366;28;20076;-51
2022/05/25 04:33:22;;;;;;;9.17;7.87;;;;;;;14.67;100.00;96171.66;5047335;28;20319;-50
2022/05/25 04:35:50;;;;;;;9.15;6.82;;;;;;;14.52;100.00;96181.38;5044606;28;20065;-55
2022/05/25 04:38:18;;;;;;;10.30;7.43;;;;;;;14.62;100.00;96173.16;5045010;28;20057;-51
2022/05/25 04:40:47;;;;;;;9.68;7.80;;;;;;;14.55;100.00;96185.50;5047950;28;20458;-52
2022/05/25 04:43:17;;;;;;;9.70;7.90;;;;;;;14.43;100.00;96187.72;5041583;28;20072;-48
2022/05/25 04:45:48;;;;;;;14.18;8.55;;;;;;;14.68;100.00;96188.41;5039080;28;20088;-53
2022/05/25 04:48:20;;;;;;;;;;;;;;;14.67;100.00;96192.06;5043986;28;20076;-50
2022/05/25 04:50:49;;;;;;;10.82;7.78;;;;;;;14.67;100.00;96186.75;5042479;28;19956;-51
2022/05/25 04:53:19;;;;;;;9.02;7.53;;;;;;;14.62;100.00;96181.97;5047110;28;20068;-50
2022/05/25 04:58:36;;;;;;;9.00;7.85;;;;;;;14.59;100.00;96198.25;5041244;28;20068;-53
2022/05/25 05:01:04;;;;;;;;;;;;;;;14.54;100.00;96203.25;5047401;28;20076;-52
2022/05/25 05:03:35;;;;;;;10.88;8.30;;;;;;;14.51;100.00;96208.09;5029567;28;19993;-49
2022/05/25 05:06:05;;;;;;;11.88;7.60;;;;;;;14.42;100.00;96212.59;5041580;28;20081;-53
2022/05/25 05:08:34;;;;;;;10.05;8.10;;;;;;;14.62;100.00;96211.16;5041733;28;20075;-52
2022/05/25 05:11:10;;;;;;;10.00;7.85;;;;;;;14.65;100.00;96213.44;5041361;28;20037;-51
2022/05/25 05:13:39;;;;;;;10.30;8.55;;;;;;;14.64;100.00;96208.34;5047693;28;20068;-48
2022/05/25 05:16:09;;;;;;;13.20;8.40;;;;;;;14.48;100.00;96218.00;5047595;28;20479;-52
2022/05/25 05:18:39;;;;;;;10.77;8.50;;;;;;;14.55;100.00;96225.31;5041663;28;20080;-55
2022/05/25 05:21:09;;;;;;;11.60;8.00;;;;;;;14.47;100.00;96229.63;5047304;28;20064;-51
2022/05/25 05:23:38;;;;;;;11.87;9.20;;;;;;;14.46;100.00;96238.59;5045441;28;20480;-52
2022/05/25 05:26:07;;;;;;;9.68;7.43;;;;;;;14.31;100.00;96242.97;5047683;28;20088;-52
2022/05/25 05:28:37;;;;;;;13.93;7.95;;;;;;;14.25;100.00;96241.03;5042214;28;20073;-53
2022/05/25 05:31:06;;;;;;;11.32;8.20;;;;;;;14.24;100.00;96248.13;5037986;28;20084;-54
2022/05/25 05:33:35;;;;;;;10.57;7.68;;;;;;;14.11;100.00;96249.69;5032030;28;20088;-52
2022/05/25 05:36:08;;;;;;;10.60;8.35;;;;;;;14.15;100.00;96258.97;5045792;28;20072;-54
2022/05/25 05:38:41;;;;;;;9.80;8.15;;;;;;;14.15;100.00;96267.75;5046831;28;20080;-52
2022/05/25 05:41:10;;;;;;;11.15;9.07;;;;;;;14.11;100.00;96273.53;5042224;28;20091;-51
2022/05/25 05:43:40;;;;;;;10.50;8.35;;;;;;;14.12;100.00;96288.47;5042454;28;20068;-53
2022/05/25 05:46:09;;;;;;;10.90;8.00;;;;;;;14.12;100.00;96291.13;5039342;28;20091;-52
2022/05/25 05:48:37;;;;;;;8.68;7.15;;;;;;;14.16;100.00;96303.03;5043241;28;20087;-53
2022/05/25 05:51:08;;;;;;;9.48;6.93;;;;;;;14.00;100.00;96307.41;5045864;28;20061;-49
2022/05/25 05:53:37;;;;;;;12.05;8.50;;;;;;;14.19;100.00;96310.66;5038712;28;20073;-50
2022/05/25 05:56:05;;;;;;;12.30;7.95;;;;;;;16.07;100.00;96317.41;5049831;28;20068;-50
2022/05/25 05:58:34;;;;;;;10.50;7.93;;;;;;;15.28;100.00;96315.09;5048617;28;20060;-48
2022/05/25 06:01:02;;;;;;;10.48;7.70;;;;;;;15.07;100.00;96318.41;5050902;28;20080;-48
2022/05/25 06:03:30;;;;;;;10.57;7.28;;;;;;;15.10;100.00;96307.41;5038546;28;20091;-48
2022/05/25 06:05:58;;;;;;;10.75;7.40;;;;;;;14.99;100.00;96317.63;5041693;28;20057;-52
2022/05/25 06:08:29;;;;;;;9.32;6.95;;;;;;;14.98;100.00;96315.97;5039841;28;20647;-51
2022/05/25 06:10:58;;;;;;;8.23;6.43;;;;;;;15.06;100.00;96322.03;5046775;28;20205;-49
2022/05/25 06:13:26;;;;;;;8.25;6.82;;;;;;;15.09;100.00;96328.84;5037545;28;20127;-51
2022/05/25 06:21:27;;;;;;;8.98;7.80;;;;;;;15.32;100.00;96345.63;5043647;28;20101;-52
2022/05/25 06:23:59;;;;;;;11.02;7.72;;;;;;;15.32;100.00;96342.16;5038123;28;20068;-47
2022/05/25 06:26:30;;;;;;;13.68;8.93;;;;;;;15.52;100.00;96345.97;5037580;28;20472;-50
2022/05/25 06:28:59;;;;;;;11.02;8.35;;;;;;;15.55;100.00;96344.78;5046294;28;20175;-50
2022/05/25 06:31:27;;;;;;;10.20;7.95;;;;;;;15.57;100.00;96351.56;5046801;28;20527;-52
2022/05/25 06:33:56;;;;;;;9.70;8.65;;;;;;;15.60;100.00;96356.53;5043983;28;20080;-51
2022/05/25 06:36:25;;;;;;;11.68;8.32;;;;;;;15.54;100.00;96361.72;5048407;28;20080;-55
2022/05/25 06:38:56;;;;;;;12.50;8.18;;;;;;;15.82;100.00;96365.50;5046939;28;20079;-51
2022/05/25 06:41:26;;;;;;;10.68;8.85;;;;;;;16.00;100.00;96362.53;5049586;28;20075;-51
2022/05/25 06:43:54;;;;;;;12.32;8.40;;;;;;;16.20;100.00;96365.47;5049902;28;20056;-51
2022/05/25 06:46:23;;;;;;;10.52;7.93;;;;;;;16.34;100.00;96364.69;5045684;28;20057;-51
2022/05/25 06:48:53;;;;;;;11.57;8.23;;;;;;;16.39;100.00;96372.13;5043308;28;20088;-52
2022/05/25 06:51:23;;;;;;;9.65;8.20;;;;;;;15.76;100.00;96371.56;5039973;28;21457;-51
2022/05/25 06:53:51;;;;;;;9.15;6.72;;;;;;;15.56;100.00;96381.00;5041963;28;20076;-50
2022/05/25 06:56:20;;;;;;;8.13;6.68;;;;;;;15.70;100.00;96390.06;5043150;28;20072;-50
2022/05/25 06:58:50;;;;;;;8.43;6.03;;;;;;;15.72;100.00;96388.03;5049943;28;20083;-55
2022/05/25 07:01:19;;;;;;;8.13;5.80;;;;;;;15.74;100.00;96400.16;5042040;28;20061;-46
2022/05/25 07:03:47;;;;;;;6.38;5.13;;;;;;;15.82;100.00;96397.41;5043382;28;20085;-49
2022/05/25 07:06:18;;;;;;;4.78;4.03;;;;;;;15.82;100.00;96399.25;5049361;28;20124;-49
2022/05/25 07:08:46;;;;;;;4.07;3.60;;;;;;;15.76;100.00;96391.97;5049369;28;20459;-46
2022/05/25 07:11:15;;;;;;;6.53;4.63;;;;;;;15.98;100.00;96398.31;5048084;28;20056;-50
2022/05/25 07:13:43;;;;;;;7.47;4.28;;;;;;;16.07;100.00;96400.72;5042712;28;20715;-46
2022/05/25 07:16:14;;;;;;;5.97;4.70;;;;;;;16.06;100.00;96404.34;5044614;28;20595;-51
2022/05/25 07:18:44;;;;;;;6.80;4.72;;;;;;;16.73;100.00;96394.72;5031944;28;20566;-50
2022/05/25 07:21:14;;;;;;;6.60;4.17;;;;;;;16.97;100.00;96394.44;5046508;28;20076;-50
2022/05/25 07:23:45;;;;;;;6.35;4.65;;;;;;;16.71;100.00;96399.38;5042451;28;20468;-49
2022/05/25 07:26:13;;;;;;;6.20;4.25;;;;;;;16.81;100.00;96395.44;5048727;28;20519;-51
2022/05/25 07:28:42;;;;;;;5.10;4.53;;;;;;;16.75;100.00;96401.50;5049238;28;20072;-54
2022/05/25 07:31:17;;;;;;;5.18;4.68;;;;;;;17.35;100.00;96407.59;5040694;28;20089;-51
2022/05/25 07:33:49;;;;;;;5.22;4.70;;;;;;;17.41;100.00;96403.31;5047368;28;20104;-50
2022/05/25 07:36:17;;;;;;;5.35;4.85;;;;;;;17.50;100.00;96397.69;5034968;28;20065;-50
2022/05/25 07:38:49;;;;;;;6.07;4.55;;;;;;;17.84;100.00;96403.38;5043053;28;20553;-50
2022/05/25 07:41:18;;;;;;;6.85;5.00;;;;;;;17.52;100.00;96409.00;5041844;28;20079;-51
2022/05/25 07:43:47;;;;;;;7.38;5.03;;;;;;;17.40;100.00;96407.00;5048364;28;20570;-50
2022/05/25 07:46:16;;;;;;;5.20;4.70;;;;;;;17.51;100.00;96407.31;5042925;28;20065;-50
2022/05/25 07:48:45;;;;;;;6.40;5.45;;;;;;;17.58;100.00;96409.25;5047688;28;20084;-50
2022/05/25 07:51:13;;;;;;;5.85;5.10;;;;;;;17.77;100.00;96403.31;5041239;28;20068;-56
2022/05/25 07:53:57;;;;;;;6.13;5.28;;;;;;;17.97;100.00;96409.66;5042364;28;20084;-52
2022/05/25 07:56:27;;;;;;;6.25;4.80;;;;;;;18.27;100.00;96404.13;5046612;28;20079;-49
2022/05/25 07:58:59;;;;;;;5.47;4.93;;;;;;;18.61;100.00;96406.00;5048076;28;20060;-55
2022/05/25 08:07:06;;;;;;;5.32;4.38;;;;;;;18.96;100.00;96406.03;5044598;28;20084;-53
2022/05/25 08:09:34;;;;;;;6.75;4.50;;;;;;;18.71;100.00;96406.50;5042074;28;20084;-50
2022/05/25 08:12:05;;;;;;;4.22;3.55;;;;;;;18.37;100.00;96419.81;5039695;28;20101;-54
2022/05/25 08:14:33;;;;;;;4.30;3.90;;;;;;;18.62;100.00;96417.53;5046127;28;20516;-50
2022/05/25 08:17:04;;;;;;;6.25;3.95;;;;;;;18.04;100.00;96412.38;5048347;28;20099;-50
2022/05/25 08:19:32;;;;;;;4.18;3.45;;;;;;;18.47;100.00;96409.63;5041058;28;20060;-51
2022/05/25 08:22:00;;;;;;;4.38;3.40;;;;;;;18.35;100.00;96408.53;5034793;28;20079;-50
2022/05/25 08:24:30;;;;;;;4.18;3.28;;;;;;;18.53;100.00;96414.19;5044006;28;20091;-48
2022/05/25 08:27:05;;;;;;;3.28;2.83;;;;;;;18.02;100.00;96422.41;5042819;28;20072;-49
2022/05/25 08:29:33;;;;;;;3.28;2.67;;;;;;;18.47;100.00;96422.97;5042832;28;20061;-52
2022/05/25 08:32:03;;;;;;;2.67;2.47;;;;;;;18.47;100.00;96428.31;5046243;28;20566;-48
2022/05/25 08:34:32;;;;;;;2.90;2.30;;;;;;;18.32;100.00;96439.09;5041980;28;20081;-48
2022/05/25 08:37:01;;;;;;;2.40;2.20;;;;;;;18.32;100.00;96436.44;5040420;28;20073;-51
2022/05/25 08:39:30;;;;;;;3.20;2.00;;;;;;;18.64;100.00;96432.31;5039067;28;20080;-50
2022/05/25 08:42:00;;;;;;;2.20;2.00;;;;;;;18.23;100.00;96433.06;5038528;28;20060;-51
2022/05/25 08:44:29;;;;;;;2.20;2.00;;;;;;;18.34;100.00;96428.22;5047670;28;20041;-50
2022/05/25 08:47:01;;;;;;;2.47;2.28;;;;;;;18.38;100.00;96432.16;5046430;28;20071;-57
2022/05/25 08:49:33;;;;;;;3.22;1.80;;;;;;;18.78;100.00;96446.63;5046988;28;20056;-49
2022/05/25 08:52:04;;;;;;;3.17;2.00;;;;;;;18.91;100.00;96437.88;5046491;28;20161;-51
2022/05/25 08:54:36;;;;;;;2.70;1.92;;;;;;;19.09;100.00;96440.00;5038735;28;20091;-51
2022/05/25 08:57:25;;;;;;;2.20;1.53;;;;;;;18.70;100.00;96444.09;5046477;28;20077;-55
2022/05/25 08:59:57;;;;;;;2.13;1.30;;;;;;;19.14;100.00;96443.75;5040190;28;20475;-49
2022/05/25 09:02:30;;;;;;;2.45;1.50;;;;;;;19.30;100.00;96444.41;5048732;28;20088;-53
2022/05/25 09:05:04;;;;;;;2.03;1.30;;;;;;;19.43;100.00;96439.13;5039167;28;20065;-54
2022/05/25 09:07:40;;;;;;;2.03;1.40;;;;;;;19.62;100.00;96438.38;5050536;28;20061;-50
2022/05/25 09:10:11;;;;;;;1.33;1.20;;;;;;;19.40;100.00;96439.53;5046306;28;20095;-49
2022/05/25 09:12:42;;;;;;;1.98;1.50;;;;;;;19.42;100.00;96450.84;5048936;28;20495;-52
2022/05/25 09:15:13;;;;;;;2.15;1.30;;;;;;;18.97;100.00;96448.59;5047336;28;20076;-47
2022/05/25 09:17:44;;;;;;;1.50;1.40;;;;;;;19.25;100.00;96455.72;5048503;28;20076;-50
2022/05/25 09:20:18;;;;;;;1.60;1.50;;;;;;;18.92;100.00;96455.53;5033821;28;20061;-47
2022/05/25 09:22:52;;;;;;;2.05;1.50;;;;;;;18.82;100.00;96452.41;5039659;28;20072;-49
2022/05/25 09:25:21;;;;;;;3.30;1.80;;;;;;;18.82;100.00;96453.22;5044319;28;20060;-51
2022/05/25 09:27:56;;;;;;;2.35;1.73;;;;;;;18.80;100.00;96444.59;5051160;28;20081;-48
2022/05/25 09:30:24;;;;;;;2.58;1.77;;;;;;;18.82;100.00;96449.72;5035734;28;20424;-47
2022/05/25 09:32:57;;;;;;;4.22;1.83;;;;;;;18.99;100.00;96445.72;5042804;28;20053;-49
2022/05/25 09:35:30;;;;;;;2.35;1.98;;;;;;;19.18;100.00;96454.88;5051052;28;20125;-49
2022/05/25 09:38:01;;;;;;;3.28;2.30;;;;;;;18.66;100.00;96465.03;5050762;28;20052;-48
2022/05/25 09:40:33;;;;;;;3.25;1.80;;;;;;;18.78;100.00;96453.81;5039565;28;20096;-52
2022/05/25 09:43:04;;;;;;;2.22;1.98;;;;;;;18.60;100.00;96463.13;5047518;28;20096;-52
2022/05/25 09:45:37;;;;;;;3.15;2.10;;;;;;;18.85;100.00;96458.16;5038607;28;20116;-50
2022/05/25 09:48:13;;;;;;;3.28;1.95;;;;;;;18.31;100.00;96453.47;5045214;28;20067;-50
2022/05/25 09:50:45;;;;;;;3.33;1.90;;;;;;;18.59;100.00;96456.16;5039339;28;20576;-52
2022/05/25 09:53:17;;;;;;;2.70;1.98;;;;;;;18.76;100.00;96453.22;5038019;28;20076;-50
2022/05/25 09:55:47;;;;;;;2.97;2.05;;;;;;;18.84;100.00;96459.19;5037739;28;20072;-48
2022/05/25 09:58:21;;;;;;;;;;;;;;;19.25;100.00;96455.72;5048062;28;20068;-51
2022/05/25 10:00:55;;;;;;;2.47;1.98;;;;;;;19.03;100.00;96459.50;5049078;28;19968;-50
2022/05/25 10:03:34;;;;;;;2.90;2.10;;;;;;;19.47;100.00;96467.09;5050208;28;20534;-50
2022/05/25 10:06:21;;;;;;;2.33;2.08;;;;;;;19.04;100.00;96459.31;5044165;28;20116;-52
2022/05/25 10:08:52;;;;;;;3.25;2.35;;;;;;;19.58;100.00;96463.03;5049276;28;20068;-47
2022/05/25 10:11:33;;;;;;;2.50;2.30;;;;;;;19.83;100.00;96453.47;5043610;28;20064;-54
2022/05/25 10:14:17;;;;;;;3.67;2.40;;;;;;;20.38;100.00;96453.31;5043688;28;20067;-54
2022/05/25 10:16:46;;;;;;;3.13;2.50;;;;;;;20.54;100.00;96460.97;5043771;28;20071;-49
2022/05/25 10:19:17;;;;;;;3.13;2.70;;;;;;;20.49;100.00;96457.22;5050379;28;20075;-49
2022/05/25 10:21:50;;;;;;;3.67;3.03;;;;;;;20.37;100.00;96459.69;5043434;28;20095;-51
2022/05/25 10:24:24;;;;;;;3.55;2.83;;;;;;;20.37;100.00;96457.84;5046040;28;20096;-49
2022/05/25 10:26:55;;;;;;;4.20;2.60;;;;;;;20.58;100.00;96461.38;5041917;28;20515;-48
2022/05/25 10:38:00;;;;;;;3.63;2.58;;;;;;;20.41;100.00;96463.63;5040421;28;20071;-49
2022/05/25 10:40:32;;;;;;;3.80;2.95;;;;;;;20.31;100.00;96464.03;5039252;28;20064;-51
2022/05/25 10:43:01;;;;;;;3.38;2.45;;;;;;;20.29;100.00;96452.69;5042435;28;20073;-48
2022/05/25 10:45:37;;;;;;;3.13;2.58;;;;;;;20.29;100.00;96462.56;5034400;28;20092;-56
2022/05/25 10:48:13;;;;;;;2.70;2.40;;;;;;;20.79;100.00;96460.31;5008937;28;20646;-47
2022/05/25 10:50:46;;;;;;;5.93;2.60;;;;;;;21.50;100.00;96456.81;5047935;28;20508;-50
2022/05/25 10:53:37;;;;;;;3.78;2.40;;;;;;;;;;5035086;28;20630;-47
2022/05/25 10:56:13;;;;;;;6.68;2.75;;;;;;;21.33;100.00;96459.13;5043381;28;20069;-48
2022/05/25 10:58:56;;;;;;;4.63;2.50;;;;;;;21.36;100.00;96460.59;5049067;28;20056;-54
2022/05/25 11:01:36;;;;;;;3.58;2.40;;;;;;;21.08;100.00;96469.72;5043943;28;20058;-49
2022/05/25 11:04:32;;;;;;;3.60;2.50;;;;;;;21.53;100.00;96459.06;5044505;28;20045;-48
2022/05/25 11:07:13;;;;;;;2.30;2.10;;;;;;;21.30;100.00;96471.13;5044569;28;20085;-52
2022/05/25 11:10:02;;;;;;;2.78;2.13;;;;;;;22.01;100.00;96467.47;5037419;28;20095;-54
2022/05/25 11:12:37;;;;;;;2.30;2.10;;;;;;;22.29;100.00;96460.91;5045658;28;20528;-50
2022/05/25 11:15:16;;;;;;;3.60;1.90;;;;;;;22.88;100.00;96464.97;5044601;28;20595;-50
2022/05/25 11:17:56;;;;;;;2.25;1.77;;;;;;;22.64;100.00;96465.78;5040497;28;20079;-50
2022/05/25 11:20:30;;;;;;;3.08;1.75;;;;;;;22.60;100.00;96465.41;5049544;28;20065;-55
2022/05/25 11:23:20;;;;;;;2.50;1.83;;;;;;;22.15;100.00;96475.47;5043898;28;20079;-51
2022/05/25 11:26:01;;;;;;;2.38;1.83;;;;;;;22.90;100.00;96468.22;5043398;28;20072;-49
2022/05/25 11:28:56;;;;;;;2.00;1.70;;;;;;;22.72;100.00;96476.28;5044312;28;20053;-52
2022/05/25 11:31:31;;;;;;;3.38;1.90;;;;;;;22.26;100.00;96472.09;5049307;28;20065;-49
2022/05/25 11:34:12;;;;;;;3.00;1.60;;;;;;;22.20;100.00;96465.75;5042340;28;20088;-50
2022/05/25 11:37:10;;;;;;;;;;;;;;;22.66;100.00;96469.09;5042725;28;20071;-51
2022/05/25 11:39:46;;;;;;;2.17;1.50;;;;;;;22.54;100.00;96473.53;5042880;28;19960;-48
2022/05/25 11:42:27;;;;;;;2.97;1.50;;;;;;;21.86;100.00;96474.19;5048439;28;20431;-48
2022/05/25 11:45:14;;;;;;;1.42;1.23;;;;;;;22.54;100.00;96468.16;5049217;28;20546;-54
2022/05/25 11:47:59;;;;;;;2.75;1.40;;;;;;;21.53;100.00;96470.63;5040797;28;20076;-54
2022/05/25 11:50:38;;;;;;;2.08;1.50;;;;;;;21.85;100.00;96465.31;5033241;28;20069;-50
2022/05/25 11:53:31;;;;;;;2.55;1.30;;;;;;;22.00;100.00;96465.84;5038867;28;20563;-51
2022/05/25 11:56:06;;;;;;;1.70;1.17;;;;;;;21.58;100.00;96471.88;5035785;28;20068;-52
2022/05/25 11:58:49;;;;;;;8.52;1.38;;;;;;;22.86;100.00;96475.09;5040735;28;20126;-49
2022/05/25 12:01:22;;;;;;;3.35;1.20;;;;;;;23.50;100.00;96462.22;5043104;28;20061;-49
2022/05/25 12:04:12;;;;;;;1.58;1.20;;;;;;;22.66;100.00;96466.41;5048931;28;20109;-51
2022/05/25 12:06:51;;;;;;;1.90;1.20;;;;;;;23.30;92.68;96464.34;5042487;28;20454;-48
2022/05/25 12:09:28;;;;;;;1.43;1.10;;;;;;;23.62;100.00;96467.66;5042090;28;20072;-48
2022/05/25 12:12:01;;;;;;;2.22;1.40;;;;;;;22.93;100.00;96470.50;5040700;28;20083;-50